createdAt,value
2022-10-30T00:02:22.983Z,101432.13
2022-10-30T00:04:50.709Z,101433.19
2022-10-30T00:07:19.694Z,101435.16
2022-10-30T00:09:47.354Z,101436.84
2022-10-30T00:12:15.009Z,101435.28
2022-10-30T00:14:42.652Z,101429.31
2022-10-30T00:17:10.291Z,101428.31
2022-10-30T00:19:37.907Z,101431.66
2022-10-30T00:24:33.442Z,101424.41
2022-10-30T00:27:01.041Z,101424.19
2022-10-30T00:29:28.710Z,101423.88
2022-10-30T00:31:56.360Z,101417.44
2022-10-30T00:34:24.029Z,101417.31
2022-10-30T00:36:51.658Z,101417.25
2022-10-30T00:39:19.497Z,101414.09
2022-10-30T00:41:48.540Z,101413.44
2022-10-30T00:44:39.067Z,101420.28
2022-10-30T00:47:13.308Z,101418.75
2022-10-30T00:49:51.359Z,101417.00
2022-10-30T00:52:20.013Z,101411.09
2022-10-30T00:54:47.863Z,101407.03
2022-10-30T00:57:17.032Z,101400.16
2022-10-30T00:59:44.697Z,101403.03
2022-10-30T01:02:12.683Z,101397.63
2022-10-30T01:04:42.058Z,101394.28
2022-10-30T01:07:12.219Z,101390.22
2022-10-30T01:09:41.541Z,101388.78
2022-10-30T01:12:09.347Z,101389.16
2022-10-30T01:14:42.025Z,101383.88
2022-10-30T01:17:46.456Z,101386.47
2022-10-30T01:20:30.389Z,101385.47
2022-10-30T01:23:09.868Z,101381.09
2022-10-30T01:25:50.805Z,101382.78
2022-10-30T01:28:35.044Z,101380.13
2022-10-30T01:31:17.561Z,101382.88
2022-10-30T01:33:57.020Z,101383.63
2022-10-30T01:36:31.595Z,101373.78
2022-10-30T01:39:04.181Z,101382.28
2022-10-30T01:41:31.832Z,101381.59
2022-10-30T01:44:03.651Z,101373.19
2022-10-30T01:46:50.913Z,101366.56
2022-10-30T01:49:34.093Z,101357.94
2022-10-30T01:52:12.161Z,101356.63
2022-10-30T01:54:47.399Z,101351.09
2022-10-30T01:57:24.500Z,101357.63
2022-10-30T01:59:57.852Z,101354.78
2022-10-30T02:02:27.279Z,101357.34
2022-10-30T02:04:55.075Z,101353.91
2022-10-30T02:07:23.386Z,101352.75
2022-10-30T02:09:52.360Z,101346.56
2022-10-30T02:12:20.420Z,101342.34
2022-10-30T02:14:50.740Z,101345.63
2022-10-30T02:17:19.810Z,101346.16
2022-10-30T02:19:48.894Z,101349.91
2022-10-30T02:22:18.978Z,101353.13
2022-10-30T02:24:46.955Z,101352.44
2022-10-30T02:27:14.676Z,101362.75
2022-10-30T02:29:42.336Z,101357.34
2022-10-30T02:32:09.966Z,101347.69
2022-10-30T02:34:37.842Z,101343.47
2022-10-30T02:37:05.478Z,101342.81
2022-10-30T02:39:34.407Z,101338.06
2022-10-30T02:42:02.498Z,101338.38
2022-10-30T02:44:30.239Z,101340.94
2022-10-30T02:46:58.071Z,101334.03
2022-10-30T02:49:25.679Z,101333.34
2022-10-30T02:51:53.346Z,101334.19
2022-10-30T02:54:20.914Z,101324.56
2022-10-30T02:56:49.876Z,101329.63
2022-10-30T02:59:17.490Z,101330.47
2022-10-30T03:01:45.206Z,101339.09
2022-10-30T03:04:12.884Z,101340.81
2022-10-30T03:06:40.510Z,101342.00
2022-10-30T03:09:08.230Z,101345.25
2022-10-30T03:11:36.123Z,101353.03
2022-10-30T03:14:05.070Z,101344.59
2022-10-30T03:16:33.649Z,101346.25
2022-10-30T03:19:01.264Z,101343.03
2022-10-30T03:21:29.787Z,101347.94
2022-10-30T03:23:57.678Z,101339.78
2022-10-30T03:26:25.259Z,101346.38
2022-10-30T03:28:52.998Z,101335.03
2022-10-30T03:31:22.011Z,101337.06
2022-10-30T03:33:49.674Z,101329.25
2022-10-30T03:36:17.799Z,101333.34
2022-10-30T03:38:45.724Z,101322.72
2022-10-30T03:41:13.392Z,101322.38
2022-10-30T03:43:41.084Z,101317.13
2022-10-30T03:46:10.501Z,101310.47
2022-10-30T03:48:39.594Z,101294.31
2022-10-30T03:51:07.764Z,101299.38
2022-10-30T03:53:35.417Z,101311.63
2022-10-30T03:56:04.969Z,101318.25
2022-10-30T03:58:32.640Z,101320.78
2022-10-30T04:01:04.629Z,101313.91
2022-10-30T04:03:32.615Z,101310.94
2022-10-30T04:06:01.591Z,101308.41
2022-10-30T04:08:29.291Z,101314.53
2022-10-30T04:10:57.030Z,101328.56
2022-10-30T04:13:25.125Z,101330.97
2022-10-30T04:15:57.204Z,101335.03
2022-10-30T04:18:25.771Z,101349.22
2022-10-30T04:20:53.451Z,101339.97
2022-10-30T04:23:23.375Z,101348.78
2022-10-30T04:25:51.031Z,101363.06
2022-10-30T04:28:18.743Z,101360.88
2022-10-30T04:30:46.997Z,101354.63
2022-10-30T04:33:15.250Z,101335.72
2022-10-30T04:35:43.608Z,101333.81
2022-10-30T04:38:13.236Z,101347.16
2022-10-30T04:40:44.086Z,101358.03
2022-10-30T04:43:12.908Z,101340.94
2022-10-30T04:45:41.241Z,101335.00
2022-10-30T04:48:11.981Z,101337.38
2022-10-30T04:50:39.848Z,101331.13
2022-10-30T04:53:09.586Z,101326.72
2022-10-30T04:55:37.184Z,101329.44
2022-10-30T04:58:07.945Z,101324.84
2022-10-30T05:00:35.558Z,101318.75
2022-10-30T05:03:03.614Z,101328.09
2022-10-30T05:05:32.255Z,101329.91
2022-10-30T05:08:00.426Z,101322.63
2022-10-30T05:10:28.624Z,101311.44
2022-10-30T05:12:56.704Z,101313.22
2022-10-30T05:15:25.796Z,101300.81
2022-10-30T05:17:54.243Z,101308.72
2022-10-30T05:20:22.138Z,101297.34
2022-10-30T05:22:55.446Z,101301.41
2022-10-30T05:25:23.415Z,101287.56
2022-10-30T05:27:51.134Z,101289.34
2022-10-30T05:30:18.736Z,101288.84
2022-10-30T05:32:47.819Z,101276.84
2022-10-30T05:35:15.664Z,101281.09
2022-10-30T05:37:43.425Z,101288.66
2022-10-30T05:40:12.148Z,101304.94
2022-10-30T05:42:45.606Z,101318.69
2022-10-30T05:45:13.414Z,101307.19
2022-10-30T05:47:41.033Z,101283.13
2022-10-30T05:50:11.571Z,101299.00
2022-10-30T05:52:39.454Z,101304.09
2022-10-30T05:55:07.796Z,101296.50
2022-10-30T05:57:35.412Z,101280.53
2022-10-30T06:00:03.037Z,101287.84
2022-10-30T06:02:30.781Z,101287.53
2022-10-30T06:04:58.451Z,101292.91
2022-10-30T06:07:27.460Z,101289.28
2022-10-30T06:09:55.024Z,101275.22
2022-10-30T06:13:04.290Z,101281.00
2022-10-30T06:15:33.699Z,101275.94
2022-10-30T06:18:02.076Z,101274.06
2022-10-30T06:20:31.427Z,101269.34
2022-10-30T06:23:00.574Z,101268.75
2022-10-30T06:28:39.415Z,101273.41
2022-10-30T06:31:09.945Z,101277.25
2022-10-30T06:33:38.048Z,101271.78
2022-10-30T06:36:06.670Z,101272.28
2022-10-30T06:38:34.550Z,101264.88
2022-10-30T06:41:02.693Z,101264.91
2022-10-30T06:43:30.483Z,101266.13
2022-10-30T06:46:00.161Z,101262.84
2022-10-30T06:48:28.274Z,101276.06
2022-10-30T06:50:56.720Z,101288.28
2022-10-30T06:53:25.156Z,101300.38
2022-10-30T06:55:58.987Z,101302.78
2022-10-30T06:58:28.107Z,101315.09
2022-10-30T07:00:57.250Z,101312.38
2022-10-30T07:03:26.404Z,101317.81
2022-10-30T07:05:54.149Z,101318.66
2022-10-30T07:08:21.956Z,101318.41
2022-10-30T07:10:49.763Z,101322.28
2022-10-30T07:13:17.908Z,101318.41
2022-10-30T07:15:45.727Z,101319.88
2022-10-30T07:18:13.480Z,101321.19
2022-10-30T07:20:42.598Z,101316.13
2022-10-30T07:23:10.427Z,101323.97
2022-10-30T07:25:38.223Z,101326.03
2022-10-30T07:28:06.251Z,101326.31
2022-10-30T07:30:34.148Z,101330.59
2022-10-30T07:33:04.701Z,101328.38
2022-10-30T07:35:34.554Z,101335.59
2022-10-30T07:38:08.165Z,101342.63
2022-10-30T07:40:36.021Z,101347.91
2022-10-30T07:43:05.675Z,101329.56
2022-10-30T07:45:34.123Z,101336.00
2022-10-30T07:48:02.412Z,101339.56
2022-10-30T07:50:30.987Z,101334.38
2022-10-30T07:52:59.459Z,101336.72
2022-10-30T07:55:28.560Z,101331.03
2022-10-30T07:57:56.807Z,101334.75
2022-10-30T08:00:24.917Z,101343.03
2022-10-30T08:02:57.033Z,101340.31
2022-10-30T08:05:28.893Z,101337.13
2022-10-30T08:07:58.718Z,101343.97
2022-10-30T08:10:28.480Z,101343.97
2022-10-30T08:12:56.290Z,101347.78
2022-10-30T08:15:24.396Z,101348.34
2022-10-30T08:17:53.287Z,101344.41
2022-10-30T08:20:24.965Z,101339.63
2022-10-30T08:22:55.010Z,101345.06
2022-10-30T08:25:26.203Z,101341.31
2022-10-30T08:27:59.436Z,101347.69
2022-10-30T08:30:30.087Z,101349.09
2022-10-30T08:32:59.594Z,101342.91
2022-10-30T08:35:27.712Z,101348.81
2022-10-30T08:37:57.110Z,101337.56
2022-10-30T08:40:25.567Z,101337.66
2022-10-30T08:42:56.442Z,101337.28
2022-10-30T08:45:29.935Z,101348.50
2022-10-30T08:47:59.899Z,101336.16
2022-10-30T08:50:28.566Z,101347.84
2022-10-30T08:52:56.772Z,101341.78
2022-10-30T08:55:25.016Z,101343.13
2022-10-30T08:57:52.814Z,101352.41
2022-10-30T09:00:22.315Z,101346.31
2022-10-30T09:02:50.127Z,101353.16
2022-10-30T09:05:18.561Z,101351.81
2022-10-30T09:07:46.706Z,101334.94
2022-10-30T09:10:15.726Z,101347.84
2022-10-30T09:12:43.537Z,101342.31
2022-10-30T09:15:11.330Z,101345.59
2022-10-30T09:17:40.524Z,101349.94
2022-10-30T09:20:09.358Z,101336.13
2022-10-30T09:22:41.792Z,101341.31
2022-10-30T09:25:10.415Z,101340.75
2022-10-30T09:27:39.296Z,101334.91
2022-10-30T09:30:08.935Z,101340.66
2022-10-30T09:32:36.731Z,101327.53
2022-10-30T09:35:06.867Z,101333.88
2022-10-30T09:37:35.936Z,101330.97
2022-10-30T09:40:04.790Z,101331.66
2022-10-30T09:42:48.916Z,101328.09
2022-10-30T09:45:53.264Z,101328.97
2022-10-30T09:48:51.340Z,101332.44
2022-10-30T09:51:44.581Z,101323.44
2022-10-30T09:54:24.522Z,101331.00
2022-10-30T09:57:02.737Z,101333.66
2022-10-30T09:59:47.419Z,101339.84
2022-10-30T10:02:35.500Z,101343.97
2022-10-30T10:05:16.442Z,101346.91
2022-10-30T10:07:51.218Z,101346.03
2022-10-30T10:10:26.976Z,101347.56
2022-10-30T10:13:01.139Z,101341.94
2022-10-30T10:15:42.116Z,101344.91
2022-10-30T10:18:20.569Z,101338.66
2022-10-30T10:20:55.479Z,101344.13
2022-10-30T10:23:33.663Z,101342.50
2022-10-30T10:26:19.833Z,101346.69
2022-10-30T10:29:06.059Z,101346.19
2022-10-30T10:31:48.005Z,101353.16
2022-10-30T10:34:41.921Z,101348.81
2022-10-30T10:37:24.380Z,101344.59
2022-10-30T10:40:19.828Z,101338.75
2022-10-30T10:43:07.198Z,101337.72
2022-10-30T10:45:49.671Z,101323.91
2022-10-30T10:48:52.537Z,101326.22
2022-10-30T10:51:26.424Z,101335.03
2022-10-30T10:54:00.603Z,101323.91
2022-10-30T10:56:37.923Z,101327.06
2022-10-30T10:59:16.616Z,101315.72
2022-10-30T11:01:53.966Z,101319.06
2022-10-30T11:04:35.995Z,101317.41
2022-10-30T11:07:21.621Z,101319.28
2022-10-30T11:09:54.232Z,101310.25
2022-10-30T11:12:36.758Z,101303.16
2022-10-30T11:15:22.704Z,101301.66
2022-10-30T11:18:01.132Z,101302.94
2022-10-30T11:20:42.846Z,101301.44
2022-10-30T11:23:41.578Z,101308.78
2022-10-30T11:26:34.705Z,101318.25
2022-10-30T11:29:13.800Z,101310.47
2022-10-30T11:31:43.920Z,101308.81
2022-10-30T11:34:25.899Z,101315.50
2022-10-30T11:36:56.031Z,101310.47
2022-10-30T11:39:27.104Z,101314.47
2022-10-30T11:42:04.440Z,101308.75
2022-10-30T11:44:39.120Z,101311.66
2022-10-30T11:47:10.126Z,101317.13
2022-10-30T11:49:46.961Z,101312.03
2022-10-30T11:52:19.144Z,101319.59
2022-10-30T11:54:52.014Z,101322.53
2022-10-30T11:57:33.112Z,101315.81
2022-10-30T12:00:09.580Z,101312.69
2022-10-30T12:02:44.483Z,101312.84
2022-10-30T12:05:38.569Z,101311.97
2022-10-30T12:08:23.164Z,101311.97
2022-10-30T12:11:02.565Z,101315.56
2022-10-30T12:13:39.900Z,101317.44
2022-10-30T12:16:16.924Z,101320.38
2022-10-30T12:18:58.253Z,101318.22
2022-10-30T12:21:28.239Z,101315.75
2022-10-30T12:23:58.812Z,101310.69
2022-10-30T12:26:27.468Z,101309.44
2022-10-30T12:29:01.579Z,101313.19
2022-10-30T12:31:42.250Z,101314.63
2022-10-30T12:34:39.877Z,101314.81
2022-10-30T12:37:15.848Z,101311.00
2022-10-30T12:39:58.850Z,101301.53
2022-10-30T12:42:27.234Z,101301.31
2022-10-30T12:45:14.586Z,101306.78
2022-10-30T12:47:52.687Z,101307.19
2022-10-30T12:50:27.631Z,101300.81
2022-10-30T12:53:07.077Z,101302.53
2022-10-30T12:55:41.370Z,101298.25
2022-10-30T12:58:21.917Z,101303.28
2022-10-30T13:01:01.636Z,101307.94
2022-10-30T13:03:37.797Z,101314.09
2022-10-30T13:06:17.107Z,101309.63
2022-10-30T13:09:01.106Z,101308.84
2022-10-30T13:11:41.952Z,101296.19
2022-10-30T13:14:20.884Z,101300.38
2022-10-30T13:16:51.583Z,101291.53
2022-10-30T13:19:20.721Z,101294.38
2022-10-30T13:22:00.329Z,101298.44
2022-10-30T13:24:51.940Z,101289.69
2022-10-30T13:27:29.706Z,101290.03
2022-10-30T13:30:05.508Z,101285.88
2022-10-30T13:32:57.220Z,101291.13
2022-10-30T13:35:41.541Z,101286.16
2022-10-30T13:38:36.360Z,101289.50
2022-10-30T13:41:17.721Z,101284.63
2022-10-30T13:43:59.447Z,101293.72
2022-10-30T13:47:04.848Z,101285.47
2022-10-30T13:49:54.384Z,101288.69
2022-10-30T13:55:04.374Z,101289.28
2022-10-30T13:57:43.696Z,101294.59
2022-10-30T14:00:20.337Z,101293.25
2022-10-30T14:03:20.493Z,101288.22
2022-10-30T14:05:56.491Z,101292.03
2022-10-30T14:08:43.501Z,101291.63
2022-10-30T14:11:14.855Z,101295.03
2022-10-30T14:13:53.950Z,101291.63
2022-10-30T14:16:43.296Z,101297.78
2022-10-30T14:19:13.050Z,101295.22
2022-10-30T14:21:43.478Z,101292.97
2022-10-30T14:24:19.908Z,101298.00
2022-10-30T14:26:53.026Z,101302.63
2022-10-30T14:29:51.794Z,101300.56
2022-10-30T14:32:43.005Z,101298.47
2022-10-30T14:35:40.031Z,101290.50
2022-10-30T14:38:30.373Z,101295.75
2022-10-30T14:41:43.106Z,101300.41
2022-10-30T14:44:29.125Z,101301.03
2022-10-30T14:47:25.173Z,101300.88
2022-10-30T14:50:02.881Z,101299.84
2022-10-30T14:52:50.831Z,101303.03
2022-10-30T14:55:32.530Z,101298.81
2022-10-30T14:58:27.163Z,101308.56
2022-10-30T15:01:28.970Z,101298.88
2022-10-30T15:04:21.875Z,101292.81
2022-10-30T15:07:04.142Z,101295.34
2022-10-30T15:09:46.812Z,101294.50
2022-10-30T15:12:52.282Z,101296.19
2022-10-30T15:15:22.644Z,101302.03
2022-10-30T15:17:54.752Z,101291.13
2022-10-30T15:20:26.295Z,101293.66
2022-10-30T15:22:58.091Z,101294.47
2022-10-30T15:25:34.341Z,101298.47
2022-10-30T15:28:02.995Z,101294.91
2022-10-30T15:30:32.539Z,101296.78
2022-10-30T15:33:00.793Z,101295.69
2022-10-30T15:35:31.007Z,101300.44
2022-10-30T15:38:05.841Z,101301.25
2022-10-30T15:40:36.223Z,101297.41
2022-10-30T15:43:07.507Z,101300.28
2022-10-30T15:45:40.013Z,101303.56
2022-10-30T15:48:21.353Z,101299.09
2022-10-30T15:50:59.874Z,101308.69
2022-10-30T15:53:39.600Z,101308.19
2022-10-30T15:56:17.123Z,101302.84
2022-10-30T15:58:54.256Z,101308.25
2022-10-30T16:01:28.892Z,101308.00
2022-10-30T16:03:56.911Z,101303.38
2022-10-30T16:06:28.984Z,101312.97
2022-10-30T16:08:57.223Z,101292.34
2022-10-30T16:11:27.725Z,101289.78
2022-10-30T16:13:55.501Z,101290.94
2022-10-30T16:16:29.858Z,101301.78
2022-10-30T16:19:03.593Z,101293.09
2022-10-30T16:21:35.087Z,101287.59
2022-10-30T16:24:05.483Z,101289.22
2022-10-30T16:26:38.496Z,101294.22
2022-10-30T16:29:22.281Z,101293.94
2022-10-30T16:31:52.891Z,101295.75
2022-10-30T16:34:27.115Z,101290.66
2022-10-30T16:36:57.245Z,101295.84
2022-10-30T16:39:27.119Z,101295.78
2022-10-30T16:41:57.529Z,101290.28
2022-10-30T16:44:29.168Z,101296.66
2022-10-30T16:47:04.916Z,101301.06
2022-10-30T16:49:36.195Z,101298.09
2022-10-30T16:52:07.337Z,101297.03
2022-10-30T16:54:40.111Z,101297.16
2022-10-30T16:57:18.761Z,101302.31
2022-10-30T16:59:51.948Z,101300.63
2022-10-30T17:02:24.177Z,101304.13
2022-10-30T17:04:58.310Z,101299.41
2022-10-30T17:07:28.406Z,101305.63
2022-10-30T17:09:58.509Z,101304.69
2022-10-30T17:12:28.878Z,101308.19
2022-10-30T17:15:12.592Z,101314.63
2022-10-30T17:17:43.420Z,101315.00
2022-10-30T17:20:28.297Z,101319.97
2022-10-30T17:23:13.912Z,101324.06
2022-10-30T17:25:42.045Z,101318.53
2022-10-30T17:28:28.454Z,101320.78
2022-10-30T17:30:57.462Z,101321.34
2022-10-30T17:33:36.251Z,101322.56
2022-10-30T17:36:05.747Z,101318.72
2022-10-30T17:38:34.005Z,101335.00
2022-10-30T17:41:02.519Z,101340.28
2022-10-30T17:43:32.776Z,101328.44
2022-10-30T17:46:01.124Z,101329.34
2022-10-30T17:48:31.093Z,101333.47
2022-10-30T17:50:58.920Z,101331.28
2022-10-30T17:53:27.832Z,101331.75
2022-10-30T17:56:02.536Z,101330.28
2022-10-30T17:58:35.931Z,101325.38
2022-10-30T18:01:08.819Z,101326.03
2022-10-30T18:03:43.574Z,101330.09
2022-10-30T18:06:22.874Z,101336.75
2022-10-30T18:08:58.860Z,101334.09
2022-10-30T18:11:29.463Z,101332.03
2022-10-30T18:14:02.041Z,101330.03
2022-10-30T18:16:31.892Z,101328.75
2022-10-30T18:19:01.205Z,101344.81
2022-10-30T18:21:29.180Z,101334.19
2022-10-30T18:23:57.038Z,101337.19
2022-10-30T18:26:27.460Z,101343.88
2022-10-30T18:29:00.523Z,101340.28
2022-10-30T18:31:39.214Z,101343.78
2022-10-30T18:34:21.068Z,101339.88
2022-10-30T18:36:54.883Z,101334.81
2022-10-30T18:39:28.059Z,101343.97
2022-10-30T18:42:03.741Z,101335.31
2022-10-30T18:44:37.586Z,101342.66
2022-10-30T18:47:22.210Z,101339.59
2022-10-30T18:50:02.024Z,101345.06
2022-10-30T18:52:39.510Z,101336.03
2022-10-30T18:55:22.395Z,101335.78
2022-10-30T18:57:55.452Z,101334.75
2022-10-30T19:00:39.689Z,101334.25
2022-10-30T19:03:22.531Z,101329.63
2022-10-30T19:05:56.416Z,101325.47
2022-10-30T19:08:27.918Z,101331.88
2022-10-30T19:11:00.508Z,101332.22
2022-10-30T19:13:39.349Z,101326.63
2022-10-30T19:16:20.077Z,101328.84
2022-10-30T19:18:55.983Z,101329.31
2022-10-30T19:21:30.164Z,101330.50
2022-10-30T19:24:07.053Z,101329.34
2022-10-30T19:26:35.042Z,101320.09
2022-10-30T19:29:02.872Z,101328.38
2022-10-30T19:31:30.644Z,101324.13
2022-10-30T19:33:58.473Z,101326.00
2022-10-30T19:36:31.159Z,101323.81
2022-10-30T19:39:01.811Z,101317.06
2022-10-30T19:41:32.255Z,101323.16
2022-10-30T19:44:00.042Z,101323.03
2022-10-30T19:46:27.793Z,101326.03
2022-10-30T19:48:57.807Z,101320.72
2022-10-30T19:51:26.475Z,101320.03
2022-10-30T19:53:55.881Z,101317.44
2022-10-30T19:56:24.165Z,101322.25
2022-10-30T19:58:52.047Z,101322.63
2022-10-30T20:01:19.950Z,101329.75
2022-10-30T20:03:47.847Z,101333.13
2022-10-30T20:06:16.985Z,101323.06
2022-10-30T20:08:44.763Z,101326.09
2022-10-30T20:11:14.059Z,101324.84
2022-10-30T20:13:41.835Z,101326.88
2022-10-30T20:16:11.772Z,101325.75
2022-10-30T20:18:39.554Z,101336.75
2022-10-30T20:21:12.386Z,101334.19
2022-10-30T20:23:40.804Z,101325.25
2022-10-30T20:26:23.111Z,101330.66
2022-10-30T20:28:51.441Z,101325.75
2022-10-30T20:31:19.849Z,101332.69
2022-10-30T20:33:47.661Z,101329.66
2022-10-30T20:36:16.242Z,101343.38
2022-10-30T20:38:44.084Z,101340.34
2022-10-30T20:41:23.580Z,101335.59
2022-10-30T20:43:51.879Z,101343.38
2022-10-30T20:46:20.646Z,101349.84
2022-10-30T20:48:48.894Z,101349.84
2022-10-30T20:51:16.804Z,101351.34
2022-10-30T20:53:44.611Z,101352.53
2022-10-30T20:56:12.559Z,101358.28
2022-10-30T20:58:42.197Z,101351.88
2022-10-30T21:01:10.789Z,101345.25
2022-10-30T21:03:38.849Z,101346.78
2022-10-30T21:06:09.579Z,101352.00
2022-10-30T21:08:37.369Z,101339.34
2022-10-30T21:11:07.732Z,101350.63
2022-10-30T21:13:36.726Z,101344.53
2022-10-30T21:16:09.494Z,101340.84
2022-10-30T21:18:37.820Z,101341.53
2022-10-30T21:21:08.285Z,101341.03
2022-10-30T21:23:36.465Z,101345.59
2022-10-30T21:26:06.547Z,101343.56
2022-10-30T21:28:35.762Z,101344.44
2022-10-30T21:31:07.756Z,101346.47
2022-10-30T21:33:38.049Z,101335.66
2022-10-30T21:36:12.024Z,101344.06
2022-10-30T21:38:42.020Z,101338.16
2022-10-30T21:41:10.477Z,101336.66
2022-10-30T21:43:38.291Z,101332.56
2022-10-30T21:46:08.879Z,101332.78
2022-10-30T21:48:36.711Z,101332.75
2022-10-30T21:51:10.844Z,101334.47
2022-10-30T21:53:39.648Z,101342.91
2022-10-30T21:56:10.848Z,101344.41
2022-10-30T21:58:38.861Z,101351.84
2022-10-30T22:01:13.617Z,101347.81
2022-10-30T22:03:41.522Z,101350.34
2022-10-30T22:06:12.152Z,101347.81
2022-10-30T22:08:40.219Z,101356.59
2022-10-30T22:11:11.075Z,101348.81
2022-10-30T22:13:39.489Z,101359.63
2022-10-30T22:16:12.654Z,101354.75
2022-10-30T22:18:41.171Z,101350.66
2022-10-30T22:21:11.448Z,101356.59
2022-10-30T22:23:41.486Z,101357.09
2022-10-30T22:26:13.992Z,101356.06
2022-10-30T22:28:43.619Z,101357.25
2022-10-30T22:31:16.288Z,101355.03
2022-10-30T22:33:45.295Z,101357.06
2022-10-30T22:36:17.901Z,101352.34
2022-10-30T22:38:46.301Z,101357.41
2022-10-30T22:41:18.430Z,101351.16
2022-10-30T22:43:49.689Z,101361.47
2022-10-30T22:46:20.188Z,101357.75
2022-10-30T22:48:47.956Z,101365.69
2022-10-30T22:51:19.171Z,101369.38
2022-10-30T22:53:49.417Z,101361.13
2022-10-30T22:56:20.145Z,101364.81
2022-10-30T22:58:50.250Z,101356.25
2022-10-30T23:01:23.261Z,101350.97
2022-10-30T23:03:52.058Z,101351.69
2022-10-30T23:06:21.813Z,101357.06
2022-10-30T23:08:50.509Z,101353.84
2022-10-30T23:11:18.325Z,101352.97
2022-10-30T23:13:46.421Z,101350.25
2022-10-30T23:16:16.746Z,101352.63
2022-10-30T23:18:46.831Z,101350.06
2022-10-30T23:21:17.335Z,101353.59
2022-10-30T23:23:46.601Z,101357.88
2022-10-30T23:26:17.481Z,101358.19
2022-10-30T23:28:46.874Z,101360.72
2022-10-30T23:31:23.090Z,101354.63
2022-10-30T23:33:56.233Z,101355.94
2022-10-30T23:36:25.002Z,101348.34
2022-10-30T23:38:53.885Z,101359.97
2022-10-30T23:41:22.225Z,101358.28
2022-10-30T23:43:54.182Z,101360.00
2022-10-30T23:46:22.046Z,101369.00
2022-10-30T23:48:50.267Z,101372.00
2022-10-30T23:51:22.053Z,101365.41
2022-10-30T23:53:50.761Z,101365.69
2022-10-30T23:56:19.294Z,101364.72
2022-10-30T23:58:50.073Z,101355.56
